createdAt,value
2023-04-30T00:00:00.276Z,99456.97
2023-04-30T00:02:27.085Z,99456.97
2023-04-30T00:04:53.788Z,99460.34
2023-04-30T00:07:20.506Z,99468.22
2023-04-30T00:09:47.140Z,99462.59
2023-04-30T00:12:13.823Z,99461.34
2023-04-30T00:14:40.517Z,99466.03
2023-04-30T00:17:07.185Z,99472.50
2023-04-30T00:19:33.852Z,99471.66
2023-04-30T00:22:03.977Z,99469.25
2023-04-30T00:24:30.536Z,99472.13
2023-04-30T00:26:57.218Z,99472.75
2023-04-30T00:29:23.873Z,99475.56
2023-04-30T00:31:50.775Z,99481.84
2023-04-30T00:34:17.403Z,99488.41
2023-04-30T00:36:44.081Z,99482.56
2023-04-30T00:39:10.694Z,99485.34
2023-04-30T00:41:37.525Z,99487.97
2023-04-30T00:44:04.540Z,99496.13
2023-04-30T00:46:31.585Z,99500.03
2023-04-30T00:49:00.184Z,99492.31
2023-04-30T00:51:27.010Z,99501.28
2023-04-30T00:53:54.250Z,99493.41
2023-04-30T00:56:21.169Z,99497.16
2023-04-30T00:58:49.923Z,99506.31
2023-04-30T01:01:17.930Z,99508.34
2023-04-30T01:03:45.009Z,99507.75
2023-04-30T01:06:11.747Z,99507.13
2023-04-30T01:08:38.399Z,99516.25
2023-04-30T01:11:04.912Z,99516.44
2023-04-30T01:13:49.770Z,99512.38
2023-04-30T01:16:20.352Z,99512.44
2023-04-30T01:18:55.148Z,99524.13
2023-04-30T01:21:23.071Z,99524.38
2023-04-30T01:24:08.538Z,99522.16
2023-04-30T01:26:50.291Z,99520.63
2023-04-30T01:29:19.453Z,99525.16
2023-04-30T01:31:46.431Z,99521.00
2023-04-30T01:34:13.103Z,99525.47
2023-04-30T01:36:50.809Z,99520.31
2023-04-30T01:39:29.432Z,99526.72
2023-04-30T01:42:16.513Z,99523.56
2023-04-30T01:45:03.846Z,99523.66
2023-04-30T01:47:46.629Z,99539.56
2023-04-30T01:50:26.336Z,99532.69
2023-04-30T01:52:57.270Z,99532.16
2023-04-30T01:55:26.549Z,99541.09
2023-04-30T01:58:01.530Z,99538.84
2023-04-30T02:00:30.691Z,99547.88
2023-04-30T02:02:58.085Z,99557.94
2023-04-30T02:05:25.181Z,99550.81
2023-04-30T02:07:52.770Z,99551.06
2023-04-30T02:10:22.728Z,99559.91
2023-04-30T02:12:49.440Z,99561.69
2023-04-30T02:15:16.386Z,99559.06
2023-04-30T02:17:43.154Z,99565.31
2023-04-30T02:20:10.258Z,99561.91
2023-04-30T02:22:37.419Z,99564.78
2023-04-30T02:25:04.478Z,99565.94
2023-04-30T02:27:32.618Z,99564.34
2023-04-30T02:30:00.242Z,99565.31
2023-04-30T02:32:27.093Z,99567.13
2023-04-30T02:34:53.798Z,99568.13
2023-04-30T02:37:20.594Z,99565.66
2023-04-30T02:39:48.068Z,99576.38
2023-04-30T02:42:14.888Z,99568.88
2023-04-30T02:44:41.845Z,99576.00
2023-04-30T02:47:08.533Z,99569.22
2023-04-30T02:49:35.152Z,99579.84
2023-04-30T02:52:01.813Z,99577.31
2023-04-30T02:54:28.477Z,99568.59
2023-04-30T02:56:55.089Z,99569.63
2023-04-30T02:59:21.664Z,99574.88
2023-04-30T03:01:48.410Z,99576.75
2023-04-30T03:04:14.984Z,99574.34
2023-04-30T03:06:41.662Z,99572.69
2023-04-30T03:09:08.473Z,99577.03
2023-04-30T03:11:37.840Z,99581.69
2023-04-30T03:14:05.022Z,99584.81
2023-04-30T03:16:31.724Z,99580.53
2023-04-30T03:18:58.607Z,99586.91
2023-04-30T03:21:25.402Z,99582.00
2023-04-30T03:23:51.991Z,99585.47
2023-04-30T03:26:20.987Z,99585.31
2023-04-30T03:28:47.733Z,99581.03
2023-04-30T03:31:14.453Z,99579.28
2023-04-30T03:33:41.175Z,99589.75
2023-04-30T03:36:07.926Z,99591.53
2023-04-30T03:38:34.604Z,99598.44
2023-04-30T03:41:01.304Z,99588.91
2023-04-30T03:43:27.940Z,99592.50
2023-04-30T03:45:54.565Z,99595.25
2023-04-30T03:48:21.450Z,99596.25
2023-04-30T03:50:48.158Z,99597.94
2023-04-30T03:53:14.899Z,99602.13
2023-04-30T03:55:42.333Z,99605.66
2023-04-30T03:58:09.069Z,99605.81
2023-04-30T04:00:35.764Z,99610.41
2023-04-30T04:03:02.670Z,99607.00
2023-04-30T04:05:29.877Z,99615.75
2023-04-30T04:07:56.951Z,99615.81
2023-04-30T04:10:23.722Z,99615.91
2023-04-30T04:12:51.096Z,99615.13
2023-04-30T04:15:17.784Z,99618.69
2023-04-30T04:17:44.447Z,99618.84
2023-04-30T04:20:13.799Z,99621.59
2023-04-30T04:22:40.704Z,99624.34
2023-04-30T04:25:07.623Z,99625.22
2023-04-30T04:27:34.523Z,99628.75
2023-04-30T04:30:02.804Z,99624.34
2023-04-30T04:32:30.644Z,99626.88
2023-04-30T04:34:57.336Z,99620.72
2023-04-30T04:37:24.427Z,99629.50
2023-04-30T04:39:51.627Z,99636.59
2023-04-30T04:42:19.472Z,99632.22
2023-04-30T04:44:46.321Z,99630.44
2023-04-30T04:47:13.052Z,99639.06
2023-04-30T04:49:39.830Z,99637.34
2023-04-30T04:52:06.758Z,99639.81
2023-04-30T04:54:33.907Z,99638.28
2023-04-30T04:57:00.625Z,99642.44
2023-04-30T04:59:27.294Z,99643.13
2023-04-30T05:01:54.012Z,99637.91
2023-04-30T05:04:20.750Z,99637.34
2023-04-30T05:06:47.808Z,99642.31
2023-04-30T05:09:14.494Z,99642.31
2023-04-30T05:11:41.793Z,99645.75
2023-04-30T05:14:08.485Z,99639.38
2023-04-30T05:16:35.224Z,99637.16
2023-04-30T05:19:01.884Z,99643.06
2023-04-30T05:21:29.892Z,99639.16
2023-04-30T05:23:56.584Z,99638.94
2023-04-30T05:26:24.514Z,99638.78
2023-04-30T05:28:52.479Z,99645.56
2023-04-30T05:31:20.963Z,99648.13
2023-04-30T05:33:48.056Z,99640.25
2023-04-30T05:36:14.817Z,99648.75
2023-04-30T05:38:42.018Z,99643.22
2023-04-30T05:41:11.968Z,99651.59
2023-04-30T05:43:38.667Z,99652.00
2023-04-30T05:46:05.592Z,99646.34
2023-04-30T05:48:32.286Z,99644.34
2023-04-30T05:50:58.907Z,99644.72
2023-04-30T05:53:25.580Z,99640.75
2023-04-30T05:55:52.388Z,99647.25
2023-04-30T05:58:19.086Z,99646.94
2023-04-30T06:00:49.508Z,99651.03
2023-04-30T06:03:16.200Z,99648.03
2023-04-30T06:05:43.207Z,99644.00
2023-04-30T06:08:09.898Z,99645.25
2023-04-30T06:10:36.753Z,99643.78
2023-04-30T06:13:03.597Z,99643.16
2023-04-30T06:15:30.418Z,99647.78
2023-04-30T06:17:57.104Z,99646.47
2023-04-30T06:20:23.785Z,99650.16
2023-04-30T06:22:50.438Z,99646.59
2023-04-30T06:25:17.099Z,99650.94
2023-04-30T06:27:43.934Z,99646.50
2023-04-30T06:30:10.857Z,99655.06
2023-04-30T06:32:37.645Z,99649.63
2023-04-30T06:35:05.709Z,99644.94
2023-04-30T06:37:37.531Z,99643.78
2023-04-30T06:40:06.150Z,99649.84
2023-04-30T06:42:34.751Z,99654.31
2023-04-30T06:45:02.671Z,99654.63
2023-04-30T06:47:34.851Z,99648.91
2023-04-30T06:50:02.212Z,99651.75
2023-04-30T06:52:29.911Z,99652.16
2023-04-30T06:54:56.765Z,99654.63
2023-04-30T06:57:24.711Z,99648.16
2023-04-30T06:59:51.806Z,99650.06
2023-04-30T07:02:21.225Z,99637.97
2023-04-30T07:04:49.477Z,99655.78
2023-04-30T07:07:16.315Z,99652.03
2023-04-30T07:09:43.020Z,99647.25
2023-04-30T07:12:11.299Z,99652.84
2023-04-30T07:14:37.935Z,99655.06
2023-04-30T07:17:04.662Z,99657.53
2023-04-30T07:19:32.550Z,99656.91
2023-04-30T07:21:59.325Z,99660.28
2023-04-30T07:24:26.019Z,99661.34
2023-04-30T07:26:52.769Z,99661.34
2023-04-30T07:29:19.548Z,99658.13
2023-04-30T07:31:46.378Z,99655.50
2023-04-30T07:34:13.470Z,99661.75
2023-04-30T07:36:40.218Z,99660.59
2023-04-30T07:39:08.103Z,99653.81
2023-04-30T07:41:34.943Z,99648.66
2023-04-30T07:44:01.649Z,99656.03
2023-04-30T07:46:28.379Z,99649.72
2023-04-30T07:48:55.125Z,99651.78
2023-04-30T07:51:22.113Z,99652.66
2023-04-30T07:53:48.780Z,99659.78
2023-04-30T07:56:16.000Z,99658.81
2023-04-30T07:58:42.740Z,99657.38
2023-04-30T08:01:09.384Z,99648.56
2023-04-30T08:03:36.820Z,99643.69
2023-04-30T08:06:05.089Z,99642.31
2023-04-30T08:08:31.774Z,99642.88
2023-04-30T08:10:58.439Z,99640.38
2023-04-30T08:13:25.107Z,99645.00
2023-04-30T08:15:51.776Z,99643.97
2023-04-30T08:18:18.432Z,99643.75
2023-04-30T08:20:45.178Z,99639.75
2023-04-30T08:23:11.953Z,99638.63
2023-04-30T08:25:38.617Z,99644.84
2023-04-30T08:28:06.842Z,99635.81
2023-04-30T08:30:33.534Z,99641.59
2023-04-30T08:33:00.453Z,99634.03
2023-04-30T08:35:27.341Z,99633.63
2023-04-30T08:37:54.203Z,99636.88
2023-04-30T08:40:22.119Z,99635.69
2023-04-30T08:43:09.027Z,99639.22
2023-04-30T08:45:37.121Z,99642.56
2023-04-30T08:48:04.973Z,99637.06
2023-04-30T08:50:32.012Z,99634.97
2023-04-30T08:52:59.353Z,99635.84
2023-04-30T08:55:29.944Z,99640.41
2023-04-30T08:57:56.587Z,99646.63
2023-04-30T09:00:23.200Z,99646.13
2023-04-30T09:02:50.456Z,99641.03
2023-04-30T09:05:17.202Z,99644.34
2023-04-30T09:10:19.094Z,99647.72
2023-04-30T09:13:09.241Z,99640.72
2023-04-30T09:15:38.770Z,99645.88
2023-04-30T09:18:12.413Z,99648.66
2023-04-30T09:20:54.639Z,99649.94
2023-04-30T09:23:21.342Z,99640.09
2023-04-30T09:25:47.977Z,99644.94
2023-04-30T09:28:14.757Z,99639.44
2023-04-30T09:30:42.307Z,99634.41
2023-04-30T09:33:11.690Z,99626.28
2023-04-30T09:35:41.658Z,99632.41
2023-04-30T09:38:25.022Z,99634.22
2023-04-30T09:40:51.682Z,99631.66
2023-04-30T09:43:18.379Z,99627.97
2023-04-30T09:45:51.561Z,99627.41
2023-04-30T09:48:30.563Z,99630.53
2023-04-30T09:50:57.725Z,99628.25
2023-04-30T09:53:24.434Z,99624.66
2023-04-30T09:55:52.121Z,99615.84
2023-04-30T09:58:19.834Z,99621.41
2023-04-30T10:00:49.566Z,99623.31
2023-04-30T10:03:17.230Z,99616.94
2023-04-30T10:05:48.981Z,99612.22
2023-04-30T10:08:27.242Z,99611.78
2023-04-30T10:11:00.186Z,99606.06
2023-04-30T10:13:31.450Z,99599.53
2023-04-30T10:16:24.495Z,99605.84
2023-04-30T10:18:54.104Z,99600.03
2023-04-30T10:21:27.155Z,99599.59
2023-04-30T10:23:55.425Z,99605.03
2023-04-30T10:26:22.765Z,99591.69
2023-04-30T10:28:50.644Z,99582.63
2023-04-30T10:31:19.424Z,99581.41
2023-04-30T10:33:55.424Z,99581.41
2023-04-30T10:36:41.504Z,99588.50
2023-04-30T10:39:08.538Z,99573.09
2023-04-30T10:41:35.225Z,99571.09
2023-04-30T10:44:02.864Z,99568.88
2023-04-30T10:46:29.576Z,99565.56
2023-04-30T10:48:56.387Z,99562.50
2023-04-30T10:51:23.472Z,99566.75
2023-04-30T10:53:55.833Z,99553.19
2023-04-30T10:56:32.907Z,99553.63
2023-04-30T10:59:02.456Z,99551.38
2023-04-30T11:01:29.885Z,99546.47
2023-04-30T11:04:08.316Z,99544.09
2023-04-30T11:06:55.720Z,99541.75
2023-04-30T11:09:48.596Z,99539.75
2023-04-30T11:12:28.279Z,99540.50
2023-04-30T11:15:13.358Z,99538.78
2023-04-30T11:17:40.209Z,99529.75
2023-04-30T11:20:08.576Z,99528.63
2023-04-30T11:22:38.240Z,99523.31
2023-04-30T11:25:12.987Z,99524.97
2023-04-30T11:27:45.103Z,99526.69
2023-04-30T11:30:15.465Z,99531.75
2023-04-30T11:32:47.444Z,99532.28
2023-04-30T11:35:17.793Z,99531.31
2023-04-30T11:37:45.022Z,99524.47
2023-04-30T11:40:14.250Z,99518.53
2023-04-30T11:42:46.988Z,99525.66
2023-04-30T11:45:20.907Z,99507.53
2023-04-30T11:47:49.379Z,99517.53
2023-04-30T11:50:30.206Z,99508.59
2023-04-30T11:52:59.110Z,99507.56
2023-04-30T11:55:27.871Z,99507.09
2023-04-30T11:57:57.718Z,99505.31
2023-04-30T12:00:30.574Z,99495.59
2023-04-30T12:03:00.363Z,99503.41
2023-04-30T12:05:30.500Z,99496.06
2023-04-30T12:08:00.423Z,99491.09
2023-04-30T12:10:27.283Z,99477.19
2023-04-30T12:12:54.951Z,99495.84
2023-04-30T12:15:27.374Z,99490.53
2023-04-30T12:17:56.639Z,99483.19
2023-04-30T12:20:25.395Z,99489.81
2023-04-30T12:22:52.364Z,99479.72
2023-04-30T12:25:23.243Z,99486.50
2023-04-30T12:27:54.345Z,99483.91
2023-04-30T12:30:26.955Z,99479.81
2023-04-30T12:32:57.124Z,99475.00
2023-04-30T12:35:24.904Z,99468.00
2023-04-30T12:37:54.174Z,99468.16
2023-04-30T12:40:21.770Z,99465.28
2023-04-30T12:42:48.827Z,99475.47
2023-04-30T12:45:54.485Z,99461.25
2023-04-30T12:48:25.306Z,99473.81
2023-04-30T12:51:00.205Z,99462.53
2023-04-30T12:53:27.744Z,99461.41
2023-04-30T12:56:26.935Z,99451.44
2023-04-30T12:58:53.765Z,99448.06
2023-04-30T13:01:23.095Z,99457.00
2023-04-30T13:03:50.883Z,99455.78
2023-04-30T13:06:17.946Z,99447.69
2023-04-30T13:08:57.878Z,99454.44
2023-04-30T13:11:26.994Z,99452.44
2023-04-30T13:13:55.745Z,99447.03
2023-04-30T13:16:24.716Z,99441.91
2023-04-30T13:18:52.062Z,99443.66
2023-04-30T13:21:18.678Z,99430.63
2023-04-30T13:23:52.751Z,99438.72
2023-04-30T13:26:20.590Z,99428.97
2023-04-30T13:28:47.188Z,99437.31
2023-04-30T13:31:13.816Z,99438.00
2023-04-30T13:33:40.545Z,99422.06
2023-04-30T13:36:07.457Z,99429.78
2023-04-30T13:38:34.074Z,99424.25
2023-04-30T13:41:01.099Z,99410.84
2023-04-30T13:43:27.723Z,99421.72
2023-04-30T13:45:54.321Z,99416.88
2023-04-30T13:48:20.970Z,99420.56
2023-04-30T13:50:47.551Z,99412.19
2023-04-30T13:53:14.309Z,99414.53
2023-04-30T13:55:41.016Z,99401.91
2023-04-30T13:58:07.679Z,99406.81
2023-04-30T14:00:34.348Z,99412.66
2023-04-30T14:03:01.161Z,99414.13
2023-04-30T14:05:28.084Z,99401.44
2023-04-30T14:07:54.802Z,99408.13
2023-04-30T14:10:21.452Z,99406.13
2023-04-30T14:12:48.901Z,99398.94
2023-04-30T14:15:15.797Z,99395.38
2023-04-30T14:17:42.499Z,99397.97
2023-04-30T14:20:09.787Z,99389.19
2023-04-30T14:22:38.619Z,99384.50
2023-04-30T14:25:05.955Z,99390.03
2023-04-30T14:27:32.723Z,99387.00
2023-04-30T14:29:59.346Z,99379.28
2023-04-30T14:32:27.013Z,99390.19
2023-04-30T14:34:54.091Z,99386.84
2023-04-30T14:37:20.810Z,99375.56
2023-04-30T14:39:47.377Z,99373.56
2023-04-30T14:44:40.761Z,99375.09
2023-04-30T14:47:08.756Z,99376.84
2023-04-30T14:49:35.697Z,99379.81
2023-04-30T14:52:02.320Z,99374.75
2023-04-30T14:54:28.989Z,99372.72
2023-04-30T14:56:55.757Z,99372.56
2023-04-30T14:59:22.570Z,99368.91
2023-04-30T15:01:49.296Z,99366.53
2023-04-30T15:04:16.152Z,99361.41
2023-04-30T15:06:43.233Z,99354.13
2023-04-30T15:09:11.492Z,99360.97
2023-04-30T15:11:38.119Z,99367.09
2023-04-30T15:14:04.776Z,99365.78
2023-04-30T15:16:31.517Z,99367.91
2023-04-30T15:18:59.151Z,99369.00
2023-04-30T15:21:26.661Z,99367.75
2023-04-30T15:23:53.483Z,99359.75
2023-04-30T15:26:20.157Z,99357.97
2023-04-30T15:28:46.830Z,99362.75
2023-04-30T15:31:13.517Z,99363.03
2023-04-30T15:33:42.222Z,99358.38
2023-04-30T15:38:51.743Z,99359.63
2023-04-30T15:41:18.551Z,99368.31
2023-04-30T15:43:45.174Z,99360.47
2023-04-30T15:46:12.135Z,99355.75
2023-04-30T15:48:38.806Z,99356.25
2023-04-30T15:51:05.493Z,99357.47
2023-04-30T15:53:32.084Z,99358.19
2023-04-30T15:55:58.697Z,99359.25
2023-04-30T15:58:25.432Z,99361.34
2023-04-30T16:00:52.097Z,99354.56
2023-04-30T16:03:18.849Z,99354.88
2023-04-30T16:05:45.569Z,99344.63
2023-04-30T16:08:12.505Z,99348.97
2023-04-30T16:10:39.461Z,99347.44
2023-04-30T16:13:06.118Z,99346.94
2023-04-30T16:15:32.822Z,99342.50
2023-04-30T16:17:59.794Z,99334.09
2023-04-30T16:20:27.413Z,99341.56
2023-04-30T16:22:54.956Z,99334.41
2023-04-30T16:25:22.735Z,99334.09
2023-04-30T16:27:49.870Z,99331.78
2023-04-30T16:30:16.526Z,99335.22
2023-04-30T16:32:43.459Z,99331.78
2023-04-30T16:35:10.479Z,99326.81
2023-04-30T16:37:37.116Z,99331.56
2023-04-30T16:40:06.237Z,99327.50
2023-04-30T16:42:33.949Z,99315.06
2023-04-30T16:45:01.559Z,99315.09
2023-04-30T16:47:28.217Z,99313.88
2023-04-30T16:49:55.816Z,99314.84
2023-04-30T16:52:22.778Z,99316.91
2023-04-30T16:54:49.414Z,99322.56
2023-04-30T16:57:16.160Z,99324.38
2023-04-30T16:59:42.748Z,99330.59
2023-04-30T17:02:09.978Z,99325.44
2023-04-30T17:04:36.684Z,99324.34
2023-04-30T17:07:03.467Z,99316.69
2023-04-30T17:09:30.365Z,99321.63
2023-04-30T17:11:57.046Z,99321.28
2023-04-30T17:14:23.669Z,99325.78
2023-04-30T17:16:50.280Z,99318.66
2023-04-30T17:19:18.015Z,99319.38
2023-04-30T17:21:44.833Z,99321.38
2023-04-30T17:24:11.540Z,99318.56
2023-04-30T17:26:38.247Z,99312.66
2023-04-30T17:29:06.278Z,99312.66
2023-04-30T17:31:33.315Z,99309.63
2023-04-30T17:34:03.156Z,99319.16
2023-04-30T17:36:30.388Z,99323.66
2023-04-30T17:38:57.122Z,99318.06
2023-04-30T17:41:24.212Z,99321.72
2023-04-30T17:43:51.736Z,99322.41
2023-04-30T17:46:18.589Z,99320.59
2023-04-30T17:48:45.239Z,99317.25
2023-04-30T17:51:12.046Z,99320.75
2023-04-30T17:53:38.734Z,99324.28
2023-04-30T17:56:05.776Z,99319.47
2023-04-30T17:58:32.742Z,99314.88
2023-04-30T18:01:01.794Z,99322.84
2023-04-30T18:03:28.798Z,99322.31
2023-04-30T18:05:55.772Z,99316.09
2023-04-30T18:08:22.420Z,99317.13
2023-04-30T18:10:49.156Z,99319.63
2023-04-30T18:13:15.787Z,99321.16
2023-04-30T18:15:42.702Z,99322.22
2023-04-30T18:18:09.889Z,99318.59
2023-04-30T18:20:37.064Z,99317.72
2023-04-30T18:23:05.238Z,99316.59
2023-04-30T18:25:34.335Z,99324.00
2023-04-30T18:28:01.484Z,99329.03
2023-04-30T18:30:28.184Z,99332.78
2023-04-30T18:32:54.906Z,99332.34
2023-04-30T18:35:22.194Z,99335.53
2023-04-30T18:37:49.689Z,99329.34
2023-04-30T18:40:16.279Z,99332.53
2023-04-30T18:42:42.907Z,99321.72
2023-04-30T18:45:11.447Z,99334.63
2023-04-30T18:47:38.315Z,99334.91
2023-04-30T18:50:06.573Z,99340.31
2023-04-30T18:52:33.570Z,99335.09
2023-04-30T18:55:00.171Z,99337.69
2023-04-30T18:57:27.123Z,99332.06
2023-04-30T18:59:54.795Z,99332.09
2023-04-30T19:02:24.513Z,99334.41
2023-04-30T19:04:52.312Z,99335.66
2023-04-30T19:07:18.968Z,99336.72
2023-04-30T19:09:48.318Z,99335.69
2023-04-30T19:12:15.115Z,99340.69
2023-04-30T19:14:41.874Z,99336.22
2023-04-30T19:17:08.554Z,99336.09
2023-04-30T19:19:35.916Z,99339.16
2023-04-30T19:22:02.565Z,99338.22
2023-04-30T19:24:29.288Z,99337.88
2023-04-30T19:26:56.468Z,99332.94
2023-04-30T19:29:24.615Z,99330.19
2023-04-30T19:31:51.522Z,99328.63
2023-04-30T19:34:18.192Z,99330.34
2023-04-30T19:36:44.835Z,99334.81
2023-04-30T19:39:11.972Z,99341.94
2023-04-30T19:41:39.250Z,99337.22
2023-04-30T19:44:07.709Z,99340.50
2023-04-30T19:46:34.826Z,99336.88
2023-04-30T19:49:01.583Z,99338.81
2023-04-30T19:51:28.272Z,99332.91
2023-04-30T19:53:55.363Z,99335.09
2023-04-30T19:56:22.170Z,99329.66
2023-04-30T19:58:48.829Z,99320.63
2023-04-30T20:01:15.665Z,99324.22
2023-04-30T20:03:42.724Z,99339.41
2023-04-30T20:06:10.170Z,99333.69
2023-04-30T20:08:37.467Z,99338.50
2023-04-30T20:11:04.224Z,99333.44
2023-04-30T20:13:31.124Z,99325.00
2023-04-30T20:15:57.808Z,99328.09
2023-04-30T20:18:24.423Z,99331.97
2023-04-30T20:20:52.332Z,99335.75
2023-04-30T20:23:20.356Z,99331.66
2023-04-30T20:25:47.046Z,99335.72
2023-04-30T20:28:15.263Z,99334.03
2023-04-30T20:30:43.099Z,99324.84
2023-04-30T20:33:14.632Z,99320.56
2023-04-30T20:35:44.014Z,99326.13
2023-04-30T20:38:12.243Z,99321.84
2023-04-30T20:40:41.695Z,99319.78
2023-04-30T20:43:10.275Z,99322.50
2023-04-30T20:45:37.690Z,99321.53
2023-04-30T20:48:05.111Z,99328.31
2023-04-30T20:50:31.913Z,99321.53
2023-04-30T20:52:58.514Z,99321.28
2023-04-30T20:55:25.160Z,99316.09
2023-04-30T20:57:51.744Z,99318.22
2023-04-30T21:00:18.711Z,99320.25
2023-04-30T21:02:45.747Z,99325.03
2023-04-30T21:05:12.548Z,99324.22
2023-04-30T21:07:39.233Z,99325.50
2023-04-30T21:10:08.071Z,99329.63
2023-04-30T21:12:35.231Z,99322.97
2023-04-30T21:15:02.009Z,99327.66
2023-04-30T21:17:28.646Z,99337.72
2023-04-30T21:19:56.808Z,99326.72
2023-04-30T21:22:24.057Z,99331.56
2023-04-30T21:24:53.506Z,99329.34
2023-04-30T21:27:20.535Z,99330.91
2023-04-30T21:29:47.864Z,99336.09
2023-04-30T21:32:14.434Z,99333.88
2023-04-30T21:34:41.043Z,99330.19
2023-04-30T21:37:07.675Z,99342.19
2023-04-30T21:39:34.328Z,99342.28
2023-04-30T21:42:00.998Z,99335.53
2023-04-30T21:44:32.402Z,99337.66
2023-04-30T21:46:59.578Z,99330.16
2023-04-30T21:49:26.398Z,99337.13
2023-04-30T21:51:53.149Z,99332.25
2023-04-30T21:54:19.876Z,99337.31
2023-04-30T21:56:46.785Z,99334.13
2023-04-30T21:59:13.380Z,99332.84
2023-04-30T22:01:40.213Z,99337.69
2023-04-30T22:04:07.030Z,99331.78
2023-04-30T22:06:34.770Z,99338.00
2023-04-30T22:09:01.484Z,99324.81
2023-04-30T22:11:28.146Z,99337.25
2023-04-30T22:13:54.705Z,99332.28
2023-04-30T22:16:21.464Z,99332.91
2023-04-30T22:18:48.115Z,99334.28
2023-04-30T22:21:14.757Z,99333.84
2023-04-30T22:23:41.424Z,99335.19
2023-04-30T22:26:09.973Z,99338.31
2023-04-30T22:28:37.946Z,99332.50
2023-04-30T22:31:04.827Z,99328.09
2023-04-30T22:33:38.269Z,99326.50
2023-04-30T22:36:08.276Z,99323.13
2023-04-30T22:38:35.421Z,99318.25
2023-04-30T22:41:03.784Z,99322.22
2023-04-30T22:43:31.098Z,99319.97
2023-04-30T22:45:58.832Z,99314.03
2023-04-30T22:48:27.707Z,99312.84
2023-04-30T22:50:55.601Z,99318.50
2023-04-30T22:53:22.552Z,99310.38
2023-04-30T22:55:49.737Z,99314.91
2023-04-30T22:58:17.093Z,99316.03
2023-04-30T23:00:43.748Z,99314.63
2023-04-30T23:03:10.346Z,99312.56
2023-04-30T23:05:36.985Z,99313.78
2023-04-30T23:08:04.521Z,99312.94
2023-04-30T23:10:31.283Z,99311.34
2023-04-30T23:12:58.873Z,99309.94
2023-04-30T23:15:26.288Z,99307.38
2023-04-30T23:17:54.476Z,99305.69
2023-04-30T23:20:22.716Z,99312.09
2023-04-30T23:22:49.765Z,99307.06
2023-04-30T23:25:16.968Z,99310.81
2023-04-30T23:27:45.168Z,99302.25
2023-04-30T23:30:12.076Z,99300.00
2023-04-30T23:32:42.039Z,99305.63
2023-04-30T23:35:09.411Z,99302.34
2023-04-30T23:37:36.154Z,99300.72
2023-04-30T23:40:07.228Z,99306.16
2023-04-30T23:42:34.370Z,99303.72
2023-04-30T23:45:01.340Z,99294.41
2023-04-30T23:47:28.621Z,99291.00
2023-04-30T23:49:55.594Z,99286.81
2023-04-30T23:52:22.374Z,99286.03
2023-04-30T23:54:49.201Z,99287.97
2023-04-30T23:57:15.907Z,99288.19
2023-04-30T23:59:42.655Z,99275.97
